LSNO2: Neosho River nr Langley (Spillway)

Data processed at Thu Jan 04 2018 23:12


All information presented herein is the property of the government of the United States of America and may be revised or deleted at any time without prior notice.
Dissemination of this information without the expressed written consent of the Public Affairs Office, Tulsa District U.S. Army Corps of Engineers is strictly prohibited.
These data are gathered electronically and, as presented, have not undergone any form of quality control. These data are not guaranteed to be valid or correct.
Go to home page.
Go to station list.

Upstream stations:

Downstream station:
Previous Day
Next Day
Current Day
    
SHEF ID:       LSNO2     Neosho River (spillway) near Lan
STATION TYPE:  

                STAGE  RIV-FLOW  BAT-LOAD
                   ft       cfs      volt
              Ccp-Rev   Ccp-Rev   Ccp-Rev
(US/Central)
01/02 00:00     12.61     14745     12.57
01/02 01:00     12.51     14295     12.57
01/02 02:00     12.37     13665     12.57
01/02 03:00     12.31     13395     12.49
01/02 04:00     12.55     14475     12.49
01/02 05:00     12.54     14430     12.41
01/02 06:00     12.36     13620     12.41
01/02 07:00     12.67     15015     12.41
01/02 08:00     12.80     15600     12.41
01/02 09:00     12.93     16185     12.33
01/02 10:00     12.84     15780     12.33
01/02 11:00     12.85     15825     12.41
01/02 12:00     12.71     15195     12.41
01/02 13:00     12.97     16365     12.41
01/02 14:00     12.98     16410     12.49
01/02 15:00     12.76     15420     12.49
01/02 16:00     12.74     15330     12.49
01/02 17:00     12.92     16140     12.41
01/02 18:00     13.00     16500     12.33
01/02 19:00     12.77     15465     12.33
01/02 20:00     12.85     15825     12.33
01/02 21:00     12.93     16185     12.33
01/02 22:00     12.95     16275     12.33
01/02 23:00     12.85     15825     12.33